Latest Coastal Weather Observations for Neptune Island

IDT60701

Issued at 3:12 pm EST Wednesday 28 September 2016 (issued every 10 minutes, with the page automatically refreshed every 10 minutes)

About coastal observations | Map of coastal stations | Coastal observations for TAS | Marine services | Other Formats
Station Details ID: 018115 Name: NEPTUNE ISLAND Lat: -35.34 Lon: 136.12 Height: 32.0 m
Data from the previous 72 hours. | See also: Recent months at Neptune Island
Date/Time
EST
Temp
°C
Wind Pressure Rain since
9am
mm
Weather Cloud Vis
km
Sea
Height
m
Swell
Dir  Spd
kts
Gust
kts
hPa Trend Height
m
Period
s
Dir
28/03:00pm - W 29 34 988.4 - 3.0 - - - - - - -
28/02:48pm - NNW 22 33 988.9 - 2.0 - - - - - - -
28/02:46pm - NNW 21 30 988.7 - 2.0 - - - - - - -
28/02:41pm - N 23 29 988.3 - 1.6 - - - - - - -
28/02:30pm - N 30 37 988.2 - 1.6 - - - - - - -
28/02:00pm - NNE 29 35 988.1 - 1.0 - - - - - - -
28/01:30pm - NNE 36 45 988.6 - 1.0 - - - - - - -
28/01:23pm - NNE 36 46 989.0 - 1.0 - - - - - - -
28/01:10pm - N 36 46 989.2 - 1.0 - - - - - - -
28/01:03pm - N 30 40 989.7 - 1.0 - - - - - - -
28/01:00pm - N 29 37 990.2 - 1.0 - - - - - - -
28/12:41pm 14.7 NNE 36 46 990.1 - 0.8 - - - - - - -
28/12:30pm 15.0 NNE 38 46 988.4 - 0.0 - - - - - - -
28/12:25pm 15.7 NNE 36 46 988.8 - 0.0 - - - - - - -
28/12:00pm 15.2 NNE 35 45 989.6 - 0.0 - - - - - - -
28/11:57am 15.3 NNE 33 45 989.5 - 0.0 - - - - - - -
28/11:30am 16.2 NE 26 39 991.3 - 0.0 - - - - - - -
28/11:00am 16.0 NE 23 34 992.6 - 0.0 - - - - - - -
28/10:30am 15.2 NE 23 35 993.3 - 0.0 - - - - - - -
28/10:00am 15.8 NE 22 32 995.3 - 0.0 - - - - - - -
28/09:32am 15.3 NE 20 31 996.4 - 0.0 - - - - - - -
28/09:30am 15.5 NE 20 26 996.5 - 0.0 - - - - - - -
28/09:00am 15.2 NE 21 30 997.2 - 0.0 - - - - - - -
28/08:30am 15.0 NNE 25 31 998.9 - 0.0 - - - - - - -
28/08:00am 14.8 NE 23 30 999.7 - 0.0 - - - - - - -
28/07:54am 14.6 NE 20 30 999.8 - 0.0 - - - - - - -
28/07:30am 14.4 NE 18 25 1000.3 - 0.0 - - - - - - -
28/07:00am 14.2 NE 17 25 1001.0 - 0.0 - - - - - - -
28/06:30am 14.0 NE 18 25 1001.4 - 0.0 - - - - - - -
28/06:00am 14.0 NE 17 24 1001.9 - 0.0 - - - - - - -
28/05:30am 13.9 NE 17 22 1002.6 - 0.0 - - - - - - -
28/05:00am 13.9 NE 17 23 1003.5 - 0.0 - - - - - - -
28/04:30am 14.0 NE 18 26 1004.1 - 0.0 - - - - - - -
28/04:00am 13.9 NNE 21 27 1004.9 - 0.0 - - - - - - -
28/03:30am 13.9 NE 18 22 1005.4 - 0.0 - - - - - - -
28/03:00am 14.0 NNE 18 22 1006.1 - 0.0 - - - - - - -
28/02:30am 13.8 NNE 18 22 1006.9 - 0.0 - - - - - - -
28/02:00am 13.8 NNE 18 21 1007.6 - 0.0 - - - - - - -
28/01:30am 13.7 NNE 17 20 1008.3 - 0.0 - - - - - - -
28/01:00am 13.5 NNE 17 19 1008.8 - 0.0 - - - - - - -
28/12:30am 13.4 NNE 17 19 1009.4 - 0.0 - - - - - - -
28/12:00am 13.3 NNE 17 20 1009.9 - 0.0 - - - - - - -
 
Date/Time
EST
Temp
°C
Wind Pressure Rain since
9am
mm
Weather Cloud Vis
km
Sea
Height
m
Swell
Dir  Spd
kts
Gust
kts
hPa Trend Height
m
Period
s
Dir
27/11:30pm 13.4 NNE 17 19 1010.2 - 0.0 - - - - - - -
27/11:00pm 13.4 NNE 16 19 1010.5 - 0.0 - - - - - - -
27/10:30pm 13.4 NNE 15 18 1010.8 - 0.0 - - - - - - -
27/10:00pm 13.5 N 11 15 1011.0 - 0.0 - - - - - - -
27/09:30pm 13.5 NNW 10 12 1011.5 - 0.0 - - - - - - -
27/09:00pm 13.5 NNW 9 11 1011.6 - 0.0 - - - - - - -
27/08:30pm 13.5 NW 10 11 1011.8 - 0.0 - - - - - - -
27/08:00pm 13.7 NW 11 13 1011.9 - 0.0 - - - - - - -
27/07:30pm 13.8 WNW 13 14 1011.8 - 0.0 - - - - - - -
27/07:00pm 14.0 NW 14 16 1011.9 - 0.0 - - - - - - -
27/06:30pm 14.2 WNW 13 16 1011.9 - 0.0 - - - - - - -
27/06:00pm 14.3 NW 16 19 1012.0 - 0.0 - - - - - - -
27/05:30pm 14.9 NW 16 19 1012.0 - 0.0 - - - - - - -
27/05:00pm 15.1 NW 15 19 1012.2 - 0.0 - - - - - - -
27/04:30pm 15.6 NW 17 21 1012.3 - 0.0 - - - - - - -
27/04:00pm 15.5 NW 19 21 1012.3 - 0.0 - - - - - - -
27/03:30pm 15.8 NW 19 22 1012.4 - 0.0 - - - - - - -
27/03:00pm 15.7 NW 20 23 1012.6 - 0.0 - - - - - - -
27/02:30pm 15.4 NW 19 22 1012.8 - 0.0 - - - - - - -
27/02:00pm 15.6 NW 18 22 1013.2 - 0.0 - - - - - - -
27/01:30pm 15.5 NW 19 23 1013.6 - 0.0 - - - - - - -
27/01:00pm 15.2 NW 19 23 1014.0 - 0.0 - - - - - - -
27/12:30pm 15.2 WNW 19 22 1014.2 - 0.0 - - - - - - -
27/12:00pm 14.7 WNW 18 22 1014.5 - 0.0 - - - - - - -
27/11:30am 15.3 WNW 19 21 1014.6 - 0.0 - - - - - - -
27/11:00am 15.3 WNW 18 21 1014.7 - 0.0 - - - - - - -
27/10:30am 14.6 WNW 17 21 1014.8 - 0.0 - - - - - - -
27/10:00am 14.4 WNW 18 21 1015.0 - 0.0 - - - - - - -
27/09:30am 14.0 NW 17 21 1014.7 - 0.0 - - - - - - -
27/09:00am 13.8 WNW 17 20 1014.8 - 0.0 - - - - - - -
27/08:30am 13.4 WNW 17 22 1014.7 - 0.0 - - - - - - -
27/08:00am 13.0 WNW 17 20 1014.3 - 0.0 - - - - - - -
27/07:30am 12.6 WNW 18 21 1013.9 - 0.0 - - - - - - -
27/07:00am 12.4 WNW 18 21 1013.8 - 0.0 - - - - - - -
27/06:30am 12.3 WNW 19 23 1013.6 - 0.0 - - - - - - -
27/06:00am 12.4 W 19 22 1013.1 - 0.0 - - - - - - -
27/05:30am 12.4 W 20 24 1013.2 - 0.0 - - - - - - -
27/05:00am 12.2 WNW 17 20 1013.0 - 0.0 - - - - - - -
27/04:30am 12.3 W 18 21 1013.1 - 0.0 - - - - - - -
27/04:00am 12.2 W 18 21 1012.9 - 0.0 - - - - - - -
27/03:30am 12.3 W 19 23 1013.0 - 0.0 - - - - - - -
27/03:00am 12.2 W 17 22 1013.3 - 0.0 - - - - - - -
27/02:30am 12.2 W 16 19 1013.5 - 0.0 - - - - - - -
27/02:00am 12.1 W 17 21 1013.8 - 0.0 - - - - - - -
27/01:30am 12.0 W 16 19 1014.0 - 0.0 - - - - - - -
27/01:00am 12.1 W 15 18 1014.2 - 0.0 - - - - - - -
27/12:30am 12.1 W 17 19 1014.5 - 0.0 - - - - - - -
27/12:00am 12.0 W 15 18 1014.5 - 0.0 - - - - - - -
 
Date/Time
EST
Temp
°C
Wind Pressure Rain since
9am
mm
Weather Cloud Vis
km
Sea
Height
m
Swell
Dir  Spd
kts
Gust
kts
hPa Trend Height
m
Period
s
Dir
26/11:30pm 11.8 W 19 24 1014.7 - 0.0 - - - - - - -
26/11:00pm 12.4 W 17 21 1014.7 - 0.0 - - - - - - -
26/10:30pm 12.5 WSW 18 21 1014.8 - 0.0 - - - - - - -
26/10:00pm 12.3 W 16 21 1014.8 - 0.0 - - - - - - -
26/09:30pm 12.4 W 19 22 1014.5 - 0.0 - - - - - - -
26/09:00pm 12.4 W 19 23 1014.4 - 0.0 - - - - - - -
26/08:30pm 12.4 W 20 23 1014.2 - 0.0 - - - - - - -
26/08:00pm 12.5 W 21 25 1014.0 - 0.0 - - - - - - -
26/07:30pm 12.1 WSW 19 23 1013.6 - 0.0 - - - - - - -
26/07:00pm 12.6 W 20 24 1013.3 - 0.0 - - - - - - -
26/06:30pm 12.7 WSW 23 28 1013.0 - 0.0 - - - - - - -
26/06:00pm 13.0 WSW 24 29 1012.6 - 0.0 - - - - - - -
26/05:30pm 13.5 WSW 23 28 1012.2 - 0.0 - - - - - - -
26/05:00pm 13.8 WSW 23 28 1011.8 - 0.0 - - - - - - -
26/04:30pm 13.5 WSW 25 29 1011.7 - 0.0 - - - - - - -
26/04:00pm 14.0 WSW 26 30 1011.4 - 0.0 - - - - - - -
26/03:30pm 14.0 WSW 25 29 1011.2 - 0.0 - - - - - - -
26/03:00pm 13.7 WSW 24 28 1011.3 - 0.0 - - - - - - -
26/02:30pm 13.9 W 25 31 1011.4 - 0.0 - - - - - - -
26/02:00pm 13.3 WSW 28 31 1011.2 - 0.0 - - - - - - -
26/01:30pm 13.9 W 26 32 1011.3 - 0.0 - - - - - - -
26/01:00pm 13.4 W 27 32 1011.0 - 0.0 - - - - - - -
26/12:30pm 13.7 W 27 33 1011.0 - 0.0 - - - - - - -
26/12:00pm 13.8 W 30 37 1010.9 - 0.0 - - - - - - -
26/11:30am 13.6 W 30 35 1011.0 - 0.0 - - - - - - -
26/11:00am 13.4 W 28 33 1011.1 - 0.0 - - - - - - -
26/10:30am 13.4 W 26 31 1011.2 - 0.0 - - - - - - -
26/10:00am 13.0 W 24 30 1011.3 - 0.0 - - - - - - -
26/09:30am 12.4 WSW 26 31 1011.0 - 1.8 - - - - - - -
26/09:00am 12.4 W 25 29 1010.8 - 1.8 - - - - - - -
26/08:30am 12.0 W 25 33 1010.6 - 1.8 - - - - - - -
26/08:00am 11.7 W 25 30 1010.7 - 1.8 - - - - - - -
26/07:30am 11.4 W 25 29 1010.7 - 1.8 - - - - - - -
26/07:00am 11.1 W 25 32 1011.0 - 1.6 - - - - - - -
26/06:49am 10.8 W 26 32 1010.3 - 1.4 - - - - - - -
26/06:30am 12.3 WNW 24 30 1010.3 - 0.4 Rain - - - - - -
26/06:00am 13.2 NW 22 26 1009.8 - 0.0 - - - - - - -
26/05:56am 13.2 NW 22 27 1009.8 - 0.0 - - - - - - -
26/05:30am 12.6 NNW 17 20 1009.6 - 0.0 - - - - - - -
26/05:00am 12.6 N 19 22 1009.6 - 0.0 - - - - - - -
26/04:30am 12.7 N 20 24 1009.6 - 0.0 - - - - - - -
26/04:00am 12.9 N 20 25 1009.7 - 0.0 - - - - - - -
26/03:30am 12.9 N 20 24 1009.8 - 0.0 - - - - - - -
26/03:00am 13.0 N 21 24 1009.9 - 0.0 - - - - - - -
26/02:30am 13.0 N 19 23 1009.8 - 0.0 - - - - - - -
26/02:00am 12.9 NNE 17 19 1009.7 - 0.0 - - - - - - -
26/01:30am 12.9 N 15 18 1010.0 - 0.0 - - - - - - -
26/01:00am 12.9 N 12 15 1011.5 - 0.0 - - - - - - -
26/12:30am 13.1 NNW 15 18 1012.3 - 0.0 - - - - - - -
26/12:00am 13.3 NW 17 20 1012.8 - 0.0 - - - - - - -
 
Date/Time
EST
Temp
°C
Wind Pressure Rain since
9am
mm
Weather Cloud Vis
km
Sea
Height
m
Swell
Dir  Spd
kts
Gust
kts
hPa Trend Height
m
Period
s
Dir
25/11:30pm 13.2 NW 16 19 1013.1 - 0.0 - - - - - - -
25/11:00pm 13.3 NW 17 21 1013.4 - 0.0 - - - - - - -
25/10:30pm 13.2 NW 19 23 1013.7 - 0.0 - - - - - - -
25/10:00pm 13.3 NW 19 23 1013.6 - 0.0 - - - - - - -
25/09:30pm 13.4 WNW 20 24 1013.8 - 0.0 - - - - - - -
25/09:00pm 13.4 NW 19 23 1013.6 - 0.0 - - - - - - -
25/08:30pm 13.4 NW 20 24 1013.4 - 0.0 - - - - - - -
25/08:00pm 13.5 NW 18 21 1013.1 - 0.0 - - - - - - -
25/07:30pm 13.3 NW 17 20 1013.0 - 0.0 - - - - - - -
25/07:00pm 13.4 WNW 18 21 1012.9 - 0.0 - - - - - - -
25/06:30pm 13.3 WNW 16 21 1012.9 - 0.0 - - - - - - -
25/06:00pm 13.1 W 18 22 1012.6 - 0.0 - - - - - - -
25/05:30pm 13.1 WNW 25 29 1012.3 - 0.0 - - - - - - -
25/05:02pm 14.0 WNW 21 31 1012.3 - 0.0 - - - - - - -
25/05:00pm 13.7 WNW 21 25 1012.3 - 0.0 - - - - - - -
25/04:30pm 14.8 WNW 17 21 1012.3 - 0.0 - - - - - - -
25/04:00pm 14.5 WNW 17 21 1012.4 - 0.0 - - - - - - -

Other Formats:

Comma delimited format used in spreadsheet applications
http://www.bom.gov.au/fwo/IDT60701/IDT60701.94804.axf

JavaScript Object Notation format (JSON) in row-major order
http://www.bom.gov.au/fwo/IDT60701/IDT60701.94804.json